sensor_id;sensor_type;location;lat;lon;timestamp;P1;durP1;ratioP1;P2;durP2;ratioP2
33006;SDS011;19361;51.598;7.650;2024-01-07T00:02:54;27.10;;;17.50;;
33006;SDS011;19361;51.598;7.650;2024-01-07T00:07:55;24.98;;;17.60;;
33006;SDS011;19361;51.598;7.650;2024-01-07T00:12:55;24.83;;;16.42;;
33006;SDS011;19361;51.598;7.650;2024-01-07T00:17:56;24.45;;;16.15;;
33006;SDS011;19361;51.598;7.650;2024-01-07T00:22:57;25.98;;;17.15;;
33006;SDS011;19361;51.598;7.650;2024-01-07T00:27:57;25.38;;;18.08;;
33006;SDS011;19361;51.598;7.650;2024-01-07T00:32:58;24.85;;;17.33;;
33006;SDS011;19361;51.598;7.650;2024-01-07T00:37:59;27.27;;;18.35;;
33006;SDS011;19361;51.598;7.650;2024-01-07T00:42:59;26.67;;;18.52;;
33006;SDS011;19361;51.598;7.650;2024-01-07T00:48:00;33.67;;;20.58;;
33006;SDS011;19361;51.598;7.650;2024-01-07T00:53:01;27.63;;;19.33;;
33006;SDS011;19361;51.598;7.650;2024-01-07T00:58:01;33.35;;;19.85;;
33006;SDS011;19361;51.598;7.650;2024-01-07T01:03:02;32.08;;;21.02;;
33006;SDS011;19361;51.598;7.650;2024-01-07T01:08:03;34.88;;;22.60;;
33006;SDS011;19361;51.598;7.650;2024-01-07T01:13:04;31.45;;;20.45;;
33006;SDS011;19361;51.598;7.650;2024-01-07T01:18:05;31.38;;;20.27;;
33006;SDS011;19361;51.598;7.650;2024-01-07T01:23:06;31.10;;;21.42;;
33006;SDS011;19361;51.598;7.650;2024-01-07T01:28:06;30.77;;;20.65;;
33006;SDS011;19361;51.598;7.650;2024-01-07T01:33:07;29.67;;;19.02;;
33006;SDS011;19361;51.598;7.650;2024-01-07T01:38:08;27.27;;;19.55;;
33006;SDS011;19361;51.598;7.650;2024-01-07T01:43:08;25.13;;;17.63;;
33006;SDS011;19361;51.598;7.650;2024-01-07T01:48:09;22.05;;;16.95;;
33006;SDS011;19361;51.598;7.650;2024-01-07T01:53:10;22.27;;;16.60;;
33006;SDS011;19361;51.598;7.650;2024-01-07T01:58:10;22.30;;;17.17;;
33006;SDS011;19361;51.598;7.650;2024-01-07T02:03:13;26.80;;;18.13;;
33006;SDS011;19361;51.598;7.650;2024-01-07T02:08:14;21.05;;;16.27;;
33006;SDS011;19361;51.598;7.650;2024-01-07T02:13:15;19.30;;;15.52;;
33006;SDS011;19361;51.598;7.650;2024-01-07T02:18:15;18.92;;;14.80;;
33006;SDS011;19361;51.598;7.650;2024-01-07T02:23:16;18.52;;;13.95;;
33006;SDS011;19361;51.598;7.650;2024-01-07T02:28:17;18.40;;;13.77;;
33006;SDS011;19361;51.598;7.650;2024-01-07T02:33:17;18.13;;;13.88;;
33006;SDS011;19361;51.598;7.650;2024-01-07T02:38:18;17.42;;;13.77;;
33006;SDS011;19361;51.598;7.650;2024-01-07T02:43:19;16.48;;;13.32;;
33006;SDS011;19361;51.598;7.650;2024-01-07T02:48:19;18.60;;;12.85;;
33006;SDS011;19361;51.598;7.650;2024-01-07T02:53:20;18.48;;;14.80;;
33006;SDS011;19361;51.598;7.650;2024-01-07T02:58:21;16.15;;;12.70;;
33006;SDS011;19361;51.598;7.650;2024-01-07T03:03:21;18.52;;;14.38;;
33006;SDS011;19361;51.598;7.650;2024-01-07T03:08:22;19.23;;;14.48;;
33006;SDS011;19361;51.598;7.650;2024-01-07T03:13:23;20.25;;;15.10;;
33006;SDS011;19361;51.598;7.650;2024-01-07T03:18:23;21.98;;;14.73;;
33006;SDS011;19361;51.598;7.650;2024-01-07T03:23:24;19.00;;;14.93;;
33006;SDS011;19361;51.598;7.650;2024-01-07T03:28:24;19.92;;;15.23;;
33006;SDS011;19361;51.598;7.650;2024-01-07T03:33:25;21.30;;;15.27;;
33006;SDS011;19361;51.598;7.650;2024-01-07T03:38:26;18.98;;;13.63;;
33006;SDS011;19361;51.598;7.650;2024-01-07T03:43:26;20.00;;;14.55;;
33006;SDS011;19361;51.598;7.650;2024-01-07T03:48:27;19.13;;;13.65;;
33006;SDS011;19361;51.598;7.650;2024-01-07T03:53:28;18.45;;;14.00;;
33006;SDS011;19361;51.598;7.650;2024-01-07T03:58:28;17.15;;;13.30;;
33006;SDS011;19361;51.598;7.650;2024-01-07T04:03:29;18.67;;;13.95;;
33006;SDS011;19361;51.598;7.650;2024-01-07T04:08:30;20.65;;;14.13;;
33006;SDS011;19361;51.598;7.650;2024-01-07T04:13:30;18.73;;;13.82;;
33006;SDS011;19361;51.598;7.650;2024-01-07T04:18:31;20.92;;;14.52;;
33006;SDS011;19361;51.598;7.650;2024-01-07T04:23:32;23.42;;;15.23;;
33006;SDS011;19361;51.598;7.650;2024-01-07T04:28:32;21.38;;;15.13;;
33006;SDS011;19361;51.598;7.650;2024-01-07T04:33:33;19.67;;;14.77;;
33006;SDS011;19361;51.598;7.650;2024-01-07T04:38:34;20.83;;;14.82;;
33006;SDS011;19361;51.598;7.650;2024-01-07T04:43:35;18.70;;;14.23;;
33006;SDS011;19361;51.598;7.650;2024-01-07T04:48:36;20.70;;;13.90;;
33006;SDS011;19361;51.598;7.650;2024-01-07T04:53:37;20.25;;;14.20;;
33006;SDS011;19361;51.598;7.650;2024-01-07T04:58:38;19.98;;;14.45;;
33006;SDS011;19361;51.598;7.650;2024-01-07T05:03:40;20.90;;;15.15;;
33006;SDS011;19361;51.598;7.650;2024-01-07T05:08:41;21.23;;;15.25;;
33006;SDS011;19361;51.598;7.650;2024-01-07T05:13:41;20.80;;;15.85;;
33006;SDS011;19361;51.598;7.650;2024-01-07T05:18:42;18.75;;;14.60;;
33006;SDS011;19361;51.598;7.650;2024-01-07T05:23:48;19.48;;;15.32;;
33006;SDS011;19361;51.598;7.650;2024-01-07T05:28:49;23.70;;;16.15;;
33006;SDS011;19361;51.598;7.650;2024-01-07T05:33:49;21.92;;;16.55;;
33006;SDS011;19361;51.598;7.650;2024-01-07T05:38:50;21.30;;;16.13;;
33006;SDS011;19361;51.598;7.650;2024-01-07T05:43:51;24.23;;;16.77;;
33006;SDS011;19361;51.598;7.650;2024-01-07T05:48:51;21.27;;;16.05;;
33006;SDS011;19361;51.598;7.650;2024-01-07T05:53:52;19.50;;;14.98;;
33006;SDS011;19361;51.598;7.650;2024-01-07T05:58:52;22.40;;;15.30;;
33006;SDS011;19361;51.598;7.650;2024-01-07T06:03:53;23.40;;;16.58;;
33006;SDS011;19361;51.598;7.650;2024-01-07T06:08:54;29.73;;;17.38;;
33006;SDS011;19361;51.598;7.650;2024-01-07T06:13:54;24.80;;;16.48;;
33006;SDS011;19361;51.598;7.650;2024-01-07T06:18:55;24.67;;;16.33;;
33006;SDS011;19361;51.598;7.650;2024-01-07T06:23:56;21.63;;;15.02;;
33006;SDS011;19361;51.598;7.650;2024-01-07T06:28:56;18.80;;;14.13;;
33006;SDS011;19361;51.598;7.650;2024-01-07T06:33:57;17.33;;;13.68;;
33006;SDS011;19361;51.598;7.650;2024-01-07T06:38:58;20.85;;;14.98;;
33006;SDS011;19361;51.598;7.650;2024-01-07T06:43:58;18.67;;;13.85;;
33006;SDS011;19361;51.598;7.650;2024-01-07T06:48:59;16.00;;;11.93;;
33006;SDS011;19361;51.598;7.650;2024-01-07T06:54:01;16.75;;;11.85;;
33006;SDS011;19361;51.598;7.650;2024-01-07T06:59:01;13.57;;;10.85;;
33006;SDS011;19361;51.598;7.650;2024-01-07T07:04:02;13.15;;;10.52;;
33006;SDS011;19361;51.598;7.650;2024-01-07T07:09:03;13.50;;;10.02;;
33006;SDS011;19361;51.598;7.650;2024-01-07T07:14:03;14.05;;;10.50;;
33006;SDS011;19361;51.598;7.650;2024-01-07T07:19:04;12.93;;;10.20;;
33006;SDS011;19361;51.598;7.650;2024-01-07T07:24:05;11.77;;;9.07;;
33006;SDS011;19361;51.598;7.650;2024-01-07T07:29:07;14.30;;;9.85;;
33006;SDS011;19361;51.598;7.650;2024-01-07T07:34:09;13.65;;;10.23;;
33006;SDS011;19361;51.598;7.650;2024-01-07T07:39:10;13.60;;;10.23;;
33006;SDS011;19361;51.598;7.650;2024-01-07T07:44:13;14.90;;;10.95;;
33006;SDS011;19361;51.598;7.650;2024-01-07T07:49:14;16.38;;;11.65;;
33006;SDS011;19361;51.598;7.650;2024-01-07T07:54:15;15.60;;;10.82;;
33006;SDS011;19361;51.598;7.650;2024-01-07T07:59:16;19.75;;;11.68;;
33006;SDS011;19361;51.598;7.650;2024-01-07T08:04:16;17.88;;;11.70;;
33006;SDS011;19361;51.598;7.650;2024-01-07T08:09:18;14.27;;;11.38;;
33006;SDS011;19361;51.598;7.650;2024-01-07T08:14:18;20.67;;;10.55;;
33006;SDS011;19361;51.598;7.650;2024-01-07T08:19:19;15.75;;;10.02;;
33006;SDS011;19361;51.598;7.650;2024-01-07T08:24:20;13.45;;;9.90;;
33006;SDS011;19361;51.598;7.650;2024-01-07T08:29:21;11.77;;;9.02;;
33006;SDS011;19361;51.598;7.650;2024-01-07T08:34:22;12.40;;;8.90;;
33006;SDS011;19361;51.598;7.650;2024-01-07T08:39:23;14.18;;;8.50;;
33006;SDS011;19361;51.598;7.650;2024-01-07T08:44:25;11.10;;;8.57;;
33006;SDS011;19361;51.598;7.650;2024-01-07T08:49:27;13.18;;;8.15;;
33006;SDS011;19361;51.598;7.650;2024-01-07T08:54:29;16.13;;;8.88;;
33006;SDS011;19361;51.598;7.650;2024-01-07T08:59:29;12.00;;;8.95;;
33006;SDS011;19361;51.598;7.650;2024-01-07T09:04:31;12.63;;;8.10;;
33006;SDS011;19361;51.598;7.650;2024-01-07T09:09:33;14.05;;;8.88;;
33006;SDS011;19361;51.598;7.650;2024-01-07T09:14:34;15.45;;;8.93;;
33006;SDS011;19361;51.598;7.650;2024-01-07T09:19:37;11.57;;;8.05;;
33006;SDS011;19361;51.598;7.650;2024-01-07T09:24:39;11.43;;;6.90;;
33006;SDS011;19361;51.598;7.650;2024-01-07T09:29:39;11.60;;;6.97;;
33006;SDS011;19361;51.598;7.650;2024-01-07T09:34:40;9.48;;;6.38;;
33006;SDS011;19361;51.598;7.650;2024-01-07T09:39:41;10.70;;;6.68;;
33006;SDS011;19361;51.598;7.650;2024-01-07T09:44:42;11.35;;;6.10;;
33006;SDS011;19361;51.598;7.650;2024-01-07T09:49:43;9.50;;;5.57;;
33006;SDS011;19361;51.598;7.650;2024-01-07T09:54:44;8.05;;;5.22;;
33006;SDS011;19361;51.598;7.650;2024-01-07T09:59:51;6.20;;;5.30;;
33006;SDS011;19361;51.598;7.650;2024-01-07T10:04:52;6.60;;;4.85;;
33006;SDS011;19361;51.598;7.650;2024-01-07T10:09:53;8.27;;;5.10;;
33006;SDS011;19361;51.598;7.650;2024-01-07T10:14:55;6.95;;;5.03;;
33006;SDS011;19361;51.598;7.650;2024-01-07T10:19:56;7.43;;;5.25;;
33006;SDS011;19361;51.598;7.650;2024-01-07T10:24:57;7.60;;;4.80;;
33006;SDS011;19361;51.598;7.650;2024-01-07T10:29:58;5.70;;;4.53;;
33006;SDS011;19361;51.598;7.650;2024-01-07T10:35:02;8.38;;;5.60;;
33006;SDS011;19361;51.598;7.650;2024-01-07T10:40:07;6.65;;;4.80;;
33006;SDS011;19361;51.598;7.650;2024-01-07T10:45:11;5.13;;;4.50;;
33006;SDS011;19361;51.598;7.650;2024-01-07T10:50:12;9.23;;;4.72;;
33006;SDS011;19361;51.598;7.650;2024-01-07T10:55:14;5.05;;;4.55;;
33006;SDS011;19361;51.598;7.650;2024-01-07T11:00:18;6.15;;;4.60;;
33006;SDS011;19361;51.598;7.650;2024-01-07T11:10:46;7.22;;;4.65;;
33006;SDS011;19361;51.598;7.650;2024-01-07T11:15:50;6.22;;;4.70;;
33006;SDS011;19361;51.598;7.650;2024-01-07T11:20:51;5.78;;;4.05;;
33006;SDS011;19361;51.598;7.650;2024-01-07T11:25:53;6.80;;;4.07;;
33006;SDS011;19361;51.598;7.650;2024-01-07T11:30:54;5.00;;;4.50;;
33006;SDS011;19361;51.598;7.650;2024-01-07T11:40:57;5.68;;;4.20;;
33006;SDS011;19361;51.598;7.650;2024-01-07T11:45:59;6.28;;;4.68;;
33006;SDS011;19361;51.598;7.650;2024-01-07T11:51:00;6.13;;;4.30;;
33006;SDS011;19361;51.598;7.650;2024-01-07T11:56:00;4.78;;;4.05;;
33006;SDS011;19361;51.598;7.650;2024-01-07T12:01:01;3.92;;;3.45;;
33006;SDS011;19361;51.598;7.650;2024-01-07T12:06:03;5.45;;;4.20;;
33006;SDS011;19361;51.598;7.650;2024-01-07T12:11:04;6.82;;;4.10;;
33006;SDS011;19361;51.598;7.650;2024-01-07T12:16:05;4.93;;;4.03;;
33006;SDS011;19361;51.598;7.650;2024-01-07T12:21:07;4.88;;;4.38;;
33006;SDS011;19361;51.598;7.650;2024-01-07T12:26:08;6.60;;;4.28;;
33006;SDS011;19361;51.598;7.650;2024-01-07T12:31:10;4.47;;;4.07;;
33006;SDS011;19361;51.598;7.650;2024-01-07T12:36:11;4.93;;;3.92;;
33006;SDS011;19361;51.598;7.650;2024-01-07T12:41:12;4.00;;;3.45;;
33006;SDS011;19361;51.598;7.650;2024-01-07T12:46:13;5.40;;;3.50;;
33006;SDS011;19361;51.598;7.650;2024-01-07T12:51:14;3.58;;;3.25;;
33006;SDS011;19361;51.598;7.650;2024-01-07T12:56:16;3.38;;;3.08;;
33006;SDS011;19361;51.598;7.650;2024-01-07T13:01:16;4.00;;;3.17;;
33006;SDS011;19361;51.598;7.650;2024-01-07T13:06:17;5.50;;;3.13;;
33006;SDS011;19361;51.598;7.650;2024-01-07T13:11:18;4.82;;;4.15;;
33006;SDS011;19361;51.598;7.650;2024-01-07T13:16:18;4.38;;;3.33;;
33006;SDS011;19361;51.598;7.650;2024-01-07T13:21:19;6.22;;;3.28;;
33006;SDS011;19361;51.598;7.650;2024-01-07T13:26:20;4.88;;;3.60;;
33006;SDS011;19361;51.598;7.650;2024-01-07T13:31:21;3.60;;;2.90;;
33006;SDS011;19361;51.598;7.650;2024-01-07T13:36:22;5.60;;;3.78;;
33006;SDS011;19361;51.598;7.650;2024-01-07T13:41:23;4.38;;;3.53;;
33006;SDS011;19361;51.598;7.650;2024-01-07T13:46:24;4.75;;;2.80;;
33006;SDS011;19361;51.598;7.650;2024-01-07T13:51:25;2.97;;;2.75;;
33006;SDS011;19361;51.598;7.650;2024-01-07T13:56:26;3.78;;;3.10;;
33006;SDS011;19361;51.598;7.650;2024-01-07T14:01:28;2.22;;;2.03;;
33006;SDS011;19361;51.598;7.650;2024-01-07T14:06:30;4.35;;;2.70;;
33006;SDS011;19361;51.598;7.650;2024-01-07T14:11:31;2.30;;;2.10;;
33006;SDS011;19361;51.598;7.650;2024-01-07T14:16:32;3.90;;;2.72;;
33006;SDS011;19361;51.598;7.650;2024-01-07T14:21:33;7.15;;;2.78;;
33006;SDS011;19361;51.598;7.650;2024-01-07T14:26:33;3.47;;;2.47;;
33006;SDS011;19361;51.598;7.650;2024-01-07T14:31:34;3.28;;;2.15;;
33006;SDS011;19361;51.598;7.650;2024-01-07T14:36:39;2.50;;;2.30;;
33006;SDS011;19361;51.598;7.650;2024-01-07T14:41:41;2.97;;;2.72;;
33006;SDS011;19361;51.598;7.650;2024-01-07T14:46:43;4.85;;;2.65;;
33006;SDS011;19361;51.598;7.650;2024-01-07T14:51:44;3.08;;;2.83;;
33006;SDS011;19361;51.598;7.650;2024-01-07T14:56:44;5.57;;;3.00;;
33006;SDS011;19361;51.598;7.650;2024-01-07T15:01:45;3.28;;;2.60;;
33006;SDS011;19361;51.598;7.650;2024-01-07T15:06:46;4.43;;;3.30;;
33006;SDS011;19361;51.598;7.650;2024-01-07T15:11:48;3.35;;;2.63;;
33006;SDS011;19361;51.598;7.650;2024-01-07T15:16:49;3.75;;;2.67;;
33006;SDS011;19361;51.598;7.650;2024-01-07T15:21:54;11.77;;;3.17;;
33006;SDS011;19361;51.598;7.650;2024-01-07T15:26:54;2.20;;;2.10;;
33006;SDS011;19361;51.598;7.650;2024-01-07T15:31:55;3.40;;;2.70;;
33006;SDS011;19361;51.598;7.650;2024-01-07T15:36:56;2.58;;;2.33;;
33006;SDS011;19361;51.598;7.650;2024-01-07T15:41:57;4.18;;;3.00;;
33006;SDS011;19361;51.598;7.650;2024-01-07T15:46:57;6.75;;;3.72;;
33006;SDS011;19361;51.598;7.650;2024-01-07T15:51:58;5.53;;;3.47;;
33006;SDS011;19361;51.598;7.650;2024-01-07T15:56:59;3.72;;;3.05;;
33006;SDS011;19361;51.598;7.650;2024-01-07T16:01:59;3.90;;;3.50;;
33006;SDS011;19361;51.598;7.650;2024-01-07T16:07:00;3.45;;;3.05;;
33006;SDS011;19361;51.598;7.650;2024-01-07T16:12:01;7.82;;;4.53;;
33006;SDS011;19361;51.598;7.650;2024-01-07T16:17:05;4.07;;;3.38;;
33006;SDS011;19361;51.598;7.650;2024-01-07T16:22:05;4.20;;;3.42;;
33006;SDS011;19361;51.598;7.650;2024-01-07T16:27:10;7.30;;;3.42;;
33006;SDS011;19361;51.598;7.650;2024-01-07T16:32:12;4.15;;;3.40;;
33006;SDS011;19361;51.598;7.650;2024-01-07T16:37:14;6.78;;;4.15;;
33006;SDS011;19361;51.598;7.650;2024-01-07T16:42:14;5.25;;;2.85;;
33006;SDS011;19361;51.598;7.650;2024-01-07T16:47:16;3.25;;;2.97;;
33006;SDS011;19361;51.598;7.650;2024-01-07T16:52:16;3.60;;;3.30;;
33006;SDS011;19361;51.598;7.650;2024-01-07T16:57:17;3.80;;;3.42;;
33006;SDS011;19361;51.598;7.650;2024-01-07T17:02:18;3.35;;;2.97;;
33006;SDS011;19361;51.598;7.650;2024-01-07T17:07:19;4.07;;;3.67;;
33006;SDS011;19361;51.598;7.650;2024-01-07T17:12:20;4.57;;;3.75;;
33006;SDS011;19361;51.598;7.650;2024-01-07T17:17:21;7.65;;;4.43;;
33006;SDS011;19361;51.598;7.650;2024-01-07T17:22:22;3.90;;;3.38;;
33006;SDS011;19361;51.598;7.650;2024-01-07T17:27:23;6.75;;;4.20;;
33006;SDS011;19361;51.598;7.650;2024-01-07T17:32:23;6.00;;;4.32;;
33006;SDS011;19361;51.598;7.650;2024-01-07T17:37:24;4.55;;;3.53;;
33006;SDS011;19361;51.598;7.650;2024-01-07T17:42:26;5.72;;;3.67;;
33006;SDS011;19361;51.598;7.650;2024-01-07T17:47:26;4.82;;;3.80;;
33006;SDS011;19361;51.598;7.650;2024-01-07T17:52:27;5.40;;;3.30;;
33006;SDS011;19361;51.598;7.650;2024-01-07T17:57:28;7.25;;;4.20;;
33006;SDS011;19361;51.598;7.650;2024-01-07T18:02:31;4.40;;;4.00;;
33006;SDS011;19361;51.598;7.650;2024-01-07T18:07:32;5.10;;;4.43;;
33006;SDS011;19361;51.598;7.650;2024-01-07T18:12:33;6.57;;;4.82;;
33006;SDS011;19361;51.598;7.650;2024-01-07T18:17:33;6.35;;;4.53;;
33006;SDS011;19361;51.598;7.650;2024-01-07T18:22:35;5.70;;;5.05;;
33006;SDS011;19361;51.598;7.650;2024-01-07T18:27:36;6.45;;;4.97;;
33006;SDS011;19361;51.598;7.650;2024-01-07T18:32:37;5.82;;;4.68;;
33006;SDS011;19361;51.598;7.650;2024-01-07T18:37:38;5.93;;;4.70;;
33006;SDS011;19361;51.598;7.650;2024-01-07T18:42:39;5.82;;;4.78;;
33006;SDS011;19361;51.598;7.650;2024-01-07T18:47:40;9.88;;;5.25;;
33006;SDS011;19361;51.598;7.650;2024-01-07T18:52:41;5.88;;;4.88;;
33006;SDS011;19361;51.598;7.650;2024-01-07T18:57:42;6.35;;;4.45;;
33006;SDS011;19361;51.598;7.650;2024-01-07T19:02:45;8.38;;;5.28;;
33006;SDS011;19361;51.598;7.650;2024-01-07T19:07:46;8.15;;;6.18;;
33006;SDS011;19361;51.598;7.650;2024-01-07T19:12:46;8.70;;;5.90;;
33006;SDS011;19361;51.598;7.650;2024-01-07T19:17:47;7.50;;;5.88;;
33006;SDS011;19361;51.598;7.650;2024-01-07T19:22:49;7.53;;;5.70;;
33006;SDS011;19361;51.598;7.650;2024-01-07T19:27:49;7.35;;;5.15;;
33006;SDS011;19361;51.598;7.650;2024-01-07T19:32:50;8.68;;;5.32;;
33006;SDS011;19361;51.598;7.650;2024-01-07T19:37:51;8.45;;;5.65;;
33006;SDS011;19361;51.598;7.650;2024-01-07T19:42:52;6.38;;;5.57;;
33006;SDS011;19361;51.598;7.650;2024-01-07T19:47:55;5.88;;;5.13;;
33006;SDS011;19361;51.598;7.650;2024-01-07T19:52:56;5.60;;;5.10;;
33006;SDS011;19361;51.598;7.650;2024-01-07T19:57:57;11.05;;;5.68;;
33006;SDS011;19361;51.598;7.650;2024-01-07T20:02:57;8.18;;;5.90;;
33006;SDS011;19361;51.598;7.650;2024-01-07T20:07:58;7.65;;;5.30;;
33006;SDS011;19361;51.598;7.650;2024-01-07T20:12:59;8.52;;;5.78;;
33006;SDS011;19361;51.598;7.650;2024-01-07T20:18:01;5.90;;;5.30;;
33006;SDS011;19361;51.598;7.650;2024-01-07T20:23:02;7.38;;;5.82;;
33006;SDS011;19361;51.598;7.650;2024-01-07T20:28:03;5.68;;;4.97;;
33006;SDS011;19361;51.598;7.650;2024-01-07T20:33:04;6.43;;;5.57;;
33006;SDS011;19361;51.598;7.650;2024-01-07T20:38:10;8.52;;;6.15;;
33006;SDS011;19361;51.598;7.650;2024-01-07T20:43:10;8.63;;;5.88;;
33006;SDS011;19361;51.598;7.650;2024-01-07T20:48:11;9.30;;;6.18;;
33006;SDS011;19361;51.598;7.650;2024-01-07T20:53:12;8.93;;;5.68;;
33006;SDS011;19361;51.598;7.650;2024-01-07T20:58:13;7.53;;;5.82;;
33006;SDS011;19361;51.598;7.650;2024-01-07T21:03:14;5.95;;;5.25;;
33006;SDS011;19361;51.598;7.650;2024-01-07T21:08:15;8.02;;;6.32;;
33006;SDS011;19361;51.598;7.650;2024-01-07T21:13:17;6.70;;;6.03;;
33006;SDS011;19361;51.598;7.650;2024-01-07T21:18:17;10.80;;;7.30;;
33006;SDS011;19361;51.598;7.650;2024-01-07T21:23:18;7.88;;;5.90;;
33006;SDS011;19361;51.598;7.650;2024-01-07T21:28:19;6.68;;;5.93;;
33006;SDS011;19361;51.598;7.650;2024-01-07T21:33:20;7.40;;;5.63;;
33006;SDS011;19361;51.598;7.650;2024-01-07T21:38:23;5.75;;;4.93;;
33006;SDS011;19361;51.598;7.650;2024-01-07T21:43:26;7.55;;;5.70;;
33006;SDS011;19361;51.598;7.650;2024-01-07T21:48:27;6.53;;;5.78;;
33006;SDS011;19361;51.598;7.650;2024-01-07T21:53:33;10.40;;;6.43;;
33006;SDS011;19361;51.598;7.650;2024-01-07T21:58:34;8.60;;;6.32;;
33006;SDS011;19361;51.598;7.650;2024-01-07T22:03:35;7.80;;;6.30;;
33006;SDS011;19361;51.598;7.650;2024-01-07T22:08:35;8.40;;;6.72;;
33006;SDS011;19361;51.598;7.650;2024-01-07T22:13:36;6.70;;;6.03;;
33006;SDS011;19361;51.598;7.650;2024-01-07T22:18:37;6.53;;;5.20;;
33006;SDS011;19361;51.598;7.650;2024-01-07T22:23:38;5.18;;;4.63;;
33006;SDS011;19361;51.598;7.650;2024-01-07T22:28:42;6.00;;;4.93;;
33006;SDS011;19361;51.598;7.650;2024-01-07T22:33:44;5.78;;;5.28;;
33006;SDS011;19361;51.598;7.650;2024-01-07T22:38:46;5.32;;;4.82;;
33006;SDS011;19361;51.598;7.650;2024-01-07T22:43:47;6.80;;;5.40;;
33006;SDS011;19361;51.598;7.650;2024-01-07T22:48:47;5.97;;;5.38;;
33006;SDS011;19361;51.598;7.650;2024-01-07T22:53:48;6.43;;;5.40;;
33006;SDS011;19361;51.598;7.650;2024-01-07T22:58:49;6.85;;;5.38;;
33006;SDS011;19361;51.598;7.650;2024-01-07T23:03:49;5.53;;;4.72;;
33006;SDS011;19361;51.598;7.650;2024-01-07T23:08:50;6.80;;;5.00;;
33006;SDS011;19361;51.598;7.650;2024-01-07T23:13:51;7.00;;;5.50;;
33006;SDS011;19361;51.598;7.650;2024-01-07T23:18:52;6.85;;;5.13;;
33006;SDS011;19361;51.598;7.650;2024-01-07T23:23:52;7.55;;;5.20;;
33006;SDS011;19361;51.598;7.650;2024-01-07T23:28:53;6.95;;;5.10;;
33006;SDS011;19361;51.598;7.650;2024-01-07T23:33:54;8.35;;;5.47;;
33006;SDS011;19361;51.598;7.650;2024-01-07T23:38:55;6.82;;;5.07;;
33006;SDS011;19361;51.598;7.650;2024-01-07T23:43:56;6.57;;;5.05;;
33006;SDS011;19361;51.598;7.650;2024-01-07T23:48:56;8.98;;;5.18;;
33006;SDS011;19361;51.598;7.650;2024-01-07T23:53:57;6.50;;;5.07;;
33006;SDS011;19361;51.598;7.650;2024-01-07T23:58:58;7.38;;;5.20;;
